createdAt,value
2018-07-13T00:00:55.473Z,72.00
2018-07-13T00:01:55.489Z,84.00
2018-07-13T00:02:55.473Z,68.00
2018-07-13T00:04:11.067Z,56.00
2018-07-13T00:04:55.123Z,48.00
2018-07-13T00:05:55.110Z,48.00
2018-07-13T00:06:55.113Z,48.00
2018-07-13T00:07:55.108Z,52.00
2018-07-13T00:08:55.450Z,56.00
2018-07-13T00:09:55.428Z,64.00
2018-07-13T00:10:55.428Z,72.00
2018-07-13T00:11:55.430Z,108.00
2018-07-13T00:12:55.075Z,48.00
2018-07-13T00:13:55.418Z,52.00
2018-07-13T00:14:55.051Z,56.00
2018-07-13T00:15:55.388Z,60.00
2018-07-13T00:16:55.037Z,64.00
2018-07-13T00:17:55.363Z,56.00
2018-07-13T00:18:55.030Z,56.00
2018-07-13T00:19:55.011Z,60.00
2018-07-13T00:20:55.352Z,60.00
2018-07-13T00:21:55.009Z,76.00
2018-07-13T00:22:55.337Z,104.00
2018-07-13T00:23:54.975Z,148.00
2018-07-13T00:24:55.307Z,336.00
2018-07-13T00:25:54.979Z,172.00
2018-07-13T00:26:55.291Z,148.00
2018-07-13T00:27:54.949Z,120.00
2018-07-13T00:28:54.960Z,92.00
2018-07-13T00:29:55.273Z,84.00
2018-07-13T00:30:55.284Z,84.00
2018-07-13T00:31:55.273Z,88.00
2018-07-13T00:32:54.927Z,96.00
2018-07-13T00:33:55.238Z,220.00
2018-07-13T00:34:55.225Z,72.00
2018-07-13T00:35:54.909Z,72.00
2018-07-13T00:36:54.894Z,72.00
2018-07-13T00:37:55.213Z,84.00
2018-07-13T00:38:54.899Z,128.00
2018-07-13T00:39:54.881Z,612.00
2018-07-13T00:40:54.856Z,696.00
2018-07-13T00:41:55.202Z,664.00
2018-07-13T00:42:54.856Z,668.00
2018-07-13T00:43:54.854Z,204.00
2018-07-13T00:44:55.191Z,212.00
2018-07-13T00:45:54.845Z,388.00
2018-07-13T00:46:55.168Z,644.00
2018-07-13T00:47:55.164Z,564.00
2018-07-13T00:48:54.798Z,608.00
2018-07-13T00:49:55.129Z,400.00
2018-07-13T00:50:55.135Z,172.00
2018-07-13T00:51:55.133Z,200.00
2018-07-13T00:52:54.789Z,564.00
2018-07-13T00:53:55.097Z,176.00
2018-07-13T00:54:55.098Z,144.00
2018-07-13T00:55:54.771Z,228.00
2018-07-13T00:56:54.759Z,232.00
2018-07-13T00:57:54.755Z,240.00
2018-07-13T00:58:54.761Z,100.00
2018-07-13T00:59:54.741Z,84.00
2018-07-13T01:00:55.065Z,72.00
2018-07-13T01:01:55.068Z,68.00
2018-07-13T01:02:54.726Z,72.00
2018-07-13T01:03:54.709Z,76.00
2018-07-13T01:04:55.045Z,92.00
2018-07-13T01:05:54.704Z,112.00
2018-07-13T01:06:55.013Z,132.00
2018-07-13T01:07:55.007Z,160.00
2018-07-13T01:08:55.003Z,400.00
2018-07-13T01:09:54.993Z,348.00
2018-07-13T01:10:55.010Z,300.00
2018-07-13T01:11:54.999Z,200.00
2018-07-13T01:12:54.667Z,268.00
2018-07-13T01:13:54.969Z,192.00
2018-07-13T01:14:54.648Z,336.00
2018-07-13T01:15:54.628Z,360.00
2018-07-13T01:16:54.647Z,252.00
2018-07-13T01:17:54.959Z,276.00
2018-07-13T01:18:54.951Z,416.00
2018-07-13T01:19:54.927Z,320.00
2018-07-13T01:20:54.918Z,420.00
2018-07-13T01:21:54.625Z,416.00
2018-07-13T01:22:54.906Z,360.00
2018-07-13T01:23:54.576Z,396.00
2018-07-13T01:24:54.579Z,396.00
2018-07-13T01:25:54.566Z,400.00
2018-07-13T01:26:54.876Z,404.00
2018-07-13T01:27:54.887Z,408.00
2018-07-13T01:28:54.540Z,408.00
2018-07-13T01:29:54.857Z,416.00
2018-07-13T01:30:54.857Z,428.00
2018-07-13T01:31:54.860Z,456.00
2018-07-13T01:32:54.854Z,464.00
2018-07-13T01:33:54.845Z,496.00
2018-07-13T01:34:54.847Z,388.00
2018-07-13T01:35:54.817Z,444.00
2018-07-13T01:36:54.486Z,516.00
2018-07-13T01:37:54.816Z,512.00
2018-07-13T01:38:54.818Z,520.00
2018-07-13T01:39:54.459Z,532.00
2018-07-13T01:40:54.783Z,244.00
2018-07-13T01:41:54.451Z,352.00
2018-07-13T01:42:54.766Z,540.00
2018-07-13T01:43:54.444Z,540.00
2018-07-13T01:44:54.437Z,476.00
2018-07-13T01:45:54.761Z,544.00
2018-07-13T01:46:54.765Z,536.00
2018-07-13T01:47:54.411Z,540.00
2018-07-13T01:48:54.732Z,532.00
2018-07-13T01:49:54.738Z,544.00
2018-07-13T01:50:54.409Z,552.00
2018-07-13T01:51:54.723Z,560.00
2018-07-13T01:52:54.720Z,452.00
2018-07-13T01:53:54.374Z,524.00
2018-07-13T01:54:54.362Z,568.00
2018-07-13T01:55:54.679Z,544.00
2018-07-13T01:56:54.673Z,520.00
2018-07-13T01:57:54.692Z,540.00
2018-07-13T01:58:54.657Z,280.00
2018-07-13T01:59:54.334Z,480.00
2018-07-13T02:00:54.666Z,524.00
2018-07-13T02:01:54.321Z,528.00
2018-07-13T02:02:54.651Z,364.00
2018-07-13T02:03:54.624Z,524.00
2018-07-13T02:04:54.310Z,484.00
2018-07-13T02:05:54.285Z,260.00
2018-07-13T02:06:54.286Z,484.00
2018-07-13T02:07:54.615Z,500.00
2018-07-13T02:08:54.610Z,484.00
2018-07-13T02:09:54.602Z,476.00
2018-07-13T02:10:54.596Z,460.00
2018-07-13T02:11:54.249Z,456.00
2018-07-13T02:12:54.562Z,448.00
2018-07-13T02:13:54.232Z,448.00
2018-07-13T02:14:54.566Z,436.00
2018-07-13T02:15:54.568Z,432.00
2018-07-13T02:16:54.554Z,428.00
2018-07-13T02:17:54.530Z,424.00
2018-07-13T02:18:54.522Z,416.00
2018-07-13T02:19:54.535Z,412.00
2018-07-13T02:20:54.528Z,404.00
2018-07-13T02:21:54.179Z,400.00
2018-07-13T02:22:54.181Z,396.00
2018-07-13T02:23:54.173Z,396.00
2018-07-13T02:24:54.503Z,400.00
2018-07-13T02:25:54.150Z,392.00
2018-07-13T02:26:54.473Z,384.00
2018-07-13T02:27:54.169Z,380.00
2018-07-13T02:28:54.473Z,368.00
2018-07-13T02:29:54.452Z,368.00
2018-07-13T02:30:54.457Z,360.00
2018-07-13T02:31:54.467Z,356.00
2018-07-13T02:32:54.430Z,352.00
2018-07-13T02:33:54.134Z,348.00
2018-07-13T02:34:54.120Z,344.00
2018-07-13T02:35:54.095Z,336.00
2018-07-13T02:36:54.422Z,336.00
2018-07-13T02:37:54.408Z,332.00
2018-07-13T02:38:54.409Z,328.00
2018-07-13T02:39:54.057Z,328.00
2018-07-13T02:40:54.394Z,320.00
2018-07-13T02:41:54.056Z,312.00
2018-07-13T02:42:54.362Z,308.00
2018-07-13T02:43:54.376Z,304.00
2018-07-13T02:44:54.367Z,300.00
2018-07-13T02:45:54.342Z,296.00
2018-07-13T02:46:54.353Z,296.00
2018-07-13T02:47:54.348Z,288.00
2018-07-13T02:48:53.998Z,288.00
2018-07-13T02:49:54.317Z,284.00
2018-07-13T02:50:53.990Z,280.00
2018-07-13T02:51:53.986Z,276.00
2018-07-13T02:52:54.298Z,276.00
2018-07-13T02:53:54.288Z,272.00
2018-07-13T02:54:53.967Z,268.00
2018-07-13T02:55:54.299Z,268.00
2018-07-13T02:56:53.974Z,264.00
2018-07-13T02:57:54.262Z,264.00
2018-07-13T02:58:54.270Z,260.00
2018-07-13T02:59:54.252Z,260.00
2018-07-13T03:00:54.245Z,260.00
2018-07-13T03:01:53.915Z,256.00
2018-07-13T03:02:54.239Z,256.00
2018-07-13T03:03:54.246Z,252.00
2018-07-13T03:04:54.234Z,252.00
2018-07-13T03:05:53.891Z,252.00
2018-07-13T03:06:54.204Z,248.00
2018-07-13T03:07:53.887Z,252.00
2018-07-13T03:08:54.210Z,248.00
2018-07-13T03:09:53.869Z,244.00
2018-07-13T03:10:54.195Z,244.00
2018-07-13T03:11:53.852Z,240.00
2018-07-13T03:12:54.180Z,236.00
2018-07-13T03:13:53.839Z,232.00
2018-07-13T03:14:53.857Z,224.00
2018-07-13T03:15:54.144Z,220.00
2018-07-13T03:16:53.814Z,216.00
2018-07-13T03:17:53.814Z,216.00
2018-07-13T03:18:54.126Z,212.00
2018-07-13T03:19:53.798Z,212.00
2018-07-13T03:20:54.131Z,208.00
2018-07-13T03:21:54.136Z,204.00
2018-07-13T03:22:53.786Z,204.00
2018-07-13T03:23:53.778Z,200.00
2018-07-13T03:24:54.105Z,196.00
2018-07-13T03:25:53.763Z,192.00
2018-07-13T03:26:54.077Z,192.00
2018-07-13T03:27:53.741Z,188.00
2018-07-13T03:28:53.735Z,188.00
2018-07-13T03:29:53.725Z,176.00
2018-07-13T03:30:54.050Z,184.00
2018-07-13T03:31:54.042Z,180.00
2018-07-13T03:32:53.707Z,176.00
2018-07-13T03:33:53.704Z,176.00
2018-07-13T03:34:54.040Z,176.00
2018-07-13T03:35:53.690Z,172.00
2018-07-13T03:36:54.008Z,172.00
2018-07-13T03:37:53.681Z,172.00
2018-07-13T03:38:53.677Z,168.00
2018-07-13T03:39:54.003Z,168.00
2018-07-13T03:40:53.982Z,164.00
2018-07-13T03:41:53.662Z,164.00
2018-07-13T03:42:53.653Z,160.00
2018-07-13T03:43:54.013Z,156.00
2018-07-13T03:44:53.971Z,156.00
2018-07-13T03:45:53.949Z,152.00
2018-07-13T03:46:53.941Z,152.00
2018-07-13T03:47:53.620Z,148.00
2018-07-13T03:48:53.927Z,148.00
2018-07-13T03:49:53.939Z,152.00
2018-07-13T03:50:53.933Z,148.00
2018-07-13T03:51:53.907Z,140.00
2018-07-13T03:52:53.900Z,132.00
2018-07-13T03:53:53.899Z,132.00
2018-07-13T03:54:53.906Z,132.00
2018-07-13T03:55:53.882Z,128.00
2018-07-13T03:56:53.875Z,124.00
2018-07-13T03:57:53.553Z,120.00
2018-07-13T03:58:53.862Z,124.00
2018-07-13T03:59:53.545Z,116.00
2018-07-13T04:00:53.868Z,112.00
2018-07-13T04:01:53.841Z,116.00
2018-07-13T04:02:53.835Z,112.00
2018-07-13T04:03:53.513Z,108.00
2018-07-13T04:04:53.844Z,108.00
2018-07-13T04:05:53.498Z,108.00
2018-07-13T04:06:53.504Z,108.00
2018-07-13T04:07:53.475Z,104.00
2018-07-13T04:08:53.472Z,104.00
2018-07-13T04:09:53.788Z,104.00
2018-07-13T04:10:53.810Z,100.00
2018-07-13T04:11:53.852Z,104.00
2018-07-13T04:12:53.785Z,100.00
2018-07-13T04:13:53.456Z,100.00
2018-07-13T04:14:53.428Z,96.00
2018-07-13T04:15:53.768Z,96.00
2018-07-13T04:16:53.759Z,96.00
2018-07-13T04:17:53.421Z,96.00
2018-07-13T04:18:53.729Z,92.00
2018-07-13T04:19:53.723Z,96.00
2018-07-13T04:20:53.390Z,96.00
2018-07-13T04:21:53.729Z,96.00
2018-07-13T04:22:53.720Z,96.00
2018-07-13T04:23:53.382Z,100.00
2018-07-13T04:24:53.376Z,100.00
2018-07-13T04:25:53.361Z,104.00
2018-07-13T04:26:53.693Z,104.00
2018-07-13T04:27:53.671Z,100.00
2018-07-13T04:28:53.364Z,100.00
2018-07-13T04:29:53.674Z,92.00
2018-07-13T04:30:53.325Z,96.00
2018-07-13T04:31:53.315Z,96.00
2018-07-13T04:32:53.663Z,96.00
2018-07-13T04:33:53.311Z,60.00
2018-07-13T04:34:53.306Z,48.00
2018-07-13T04:35:53.300Z,64.00
2018-07-13T04:36:53.291Z,100.00
2018-07-13T04:37:53.606Z,96.00
2018-07-13T04:38:53.617Z,96.00
2018-07-13T04:39:53.263Z,92.00
2018-07-13T04:40:53.605Z,92.00
2018-07-13T04:41:53.597Z,68.00
2018-07-13T04:42:53.243Z,40.00
2018-07-13T04:43:53.568Z,60.00
2018-07-13T04:44:53.237Z,96.00
2018-07-13T04:45:53.226Z,96.00
2018-07-13T04:46:53.214Z,84.00
2018-07-13T04:47:53.220Z,92.00
2018-07-13T04:48:53.205Z,40.00
2018-07-13T04:49:53.230Z,48.00
2018-07-13T04:50:53.200Z,92.00
2018-07-13T04:51:53.183Z,92.00
2018-07-13T04:52:53.522Z,92.00
2018-07-13T04:53:53.497Z,92.00
2018-07-13T04:54:53.173Z,92.00
2018-07-13T04:55:53.158Z,92.00
2018-07-13T04:56:53.497Z,60.00
2018-07-13T04:57:53.485Z,60.00
2018-07-13T04:58:53.153Z,48.00
2018-07-13T04:59:53.133Z,60.00
2018-07-13T05:00:53.460Z,48.00
2018-07-13T05:01:53.177Z,48.00
2018-07-13T05:02:53.112Z,52.00
2018-07-13T05:03:53.454Z,56.00
2018-07-13T05:04:53.441Z,96.00
2018-07-13T05:05:53.430Z,80.00
2018-07-13T05:06:53.429Z,88.00
2018-07-13T05:07:53.089Z,96.00
2018-07-13T05:08:53.398Z,96.00
2018-07-13T05:09:53.076Z,100.00
2018-07-13T05:10:53.391Z,96.00
2018-07-13T05:11:53.057Z,76.00
2018-07-13T05:12:53.051Z,68.00
2018-07-13T05:13:53.377Z,44.00
2018-07-13T05:14:53.353Z,80.00
2018-07-13T05:15:53.369Z,88.00
2018-07-13T05:16:53.049Z,84.00
2018-07-13T05:17:53.353Z,88.00
2018-07-13T05:18:53.033Z,44.00
2018-07-13T05:19:53.321Z,40.00
2018-07-13T05:20:53.004Z,84.00
2018-07-13T05:21:53.001Z,44.00
2018-07-13T05:22:53.319Z,44.00
2018-07-13T05:23:53.311Z,40.00
2018-07-13T05:24:52.971Z,52.00
2018-07-13T05:25:52.957Z,40.00
2018-07-13T05:26:52.962Z,36.00
2018-07-13T05:27:53.284Z,76.00
2018-07-13T05:28:53.285Z,40.00
2018-07-13T05:29:52.926Z,64.00
2018-07-13T05:30:53.360Z,68.00
2018-07-13T05:31:53.241Z,40.00
2018-07-13T05:32:53.235Z,68.00
2018-07-13T05:33:52.911Z,72.00
2018-07-13T05:34:53.242Z,72.00
2018-07-13T05:35:52.897Z,48.00
2018-07-13T05:36:52.890Z,60.00
2018-07-13T05:37:53.216Z,68.00
2018-07-13T05:38:53.215Z,68.00
2018-07-13T05:39:53.207Z,68.00
2018-07-13T05:40:52.856Z,68.00
2018-07-13T05:41:53.197Z,68.00
2018-07-13T05:42:53.168Z,64.00
2018-07-13T05:43:53.162Z,64.00
2018-07-13T05:44:53.158Z,68.00
2018-07-13T05:45:53.150Z,64.00
2018-07-13T05:46:53.159Z,56.00
2018-07-13T05:47:52.822Z,64.00
2018-07-13T05:48:52.804Z,64.00
2018-07-13T05:49:52.812Z,64.00
2018-07-13T05:50:53.115Z,60.00
2018-07-13T05:51:53.126Z,60.00
2018-07-13T05:52:52.785Z,60.00
2018-07-13T05:53:53.116Z,64.00
2018-07-13T05:54:52.764Z,64.00
2018-07-13T05:55:52.768Z,60.00
2018-07-13T05:56:53.081Z,60.00
2018-07-13T05:57:52.752Z,52.00
2018-07-13T05:58:52.744Z,40.00
2018-07-13T05:59:52.728Z,56.00
2018-07-13T06:00:52.720Z,60.00
2018-07-13T06:01:52.714Z,44.00
2018-07-13T06:02:53.049Z,64.00
2018-07-13T06:03:52.715Z,60.00
2018-07-13T06:04:52.696Z,60.00
2018-07-13T06:05:52.737Z,60.00
2018-07-13T06:06:52.689Z,60.00
2018-07-13T06:07:53.018Z,60.00
2018-07-13T06:08:52.677Z,48.00
2018-07-13T06:09:52.666Z,40.00
2018-07-13T06:10:52.998Z,60.00
2018-07-13T06:11:52.648Z,40.00
2018-07-13T06:12:52.649Z,44.00
2018-07-13T06:13:52.959Z,56.00
2018-07-13T06:14:52.971Z,64.00
2018-07-13T06:15:52.625Z,60.00
2018-07-13T06:16:52.958Z,60.00
2018-07-13T06:17:52.929Z,56.00
2018-07-13T06:18:52.942Z,56.00
2018-07-13T06:19:52.601Z,56.00
2018-07-13T06:20:52.932Z,56.00
2018-07-13T06:21:52.581Z,56.00
2018-07-13T06:22:52.576Z,56.00
2018-07-13T06:23:52.913Z,56.00
2018-07-13T06:24:52.888Z,56.00
2018-07-13T06:25:52.580Z,52.00
2018-07-13T06:26:52.882Z,52.00
2018-07-13T06:27:52.876Z,56.00
2018-07-13T06:28:52.876Z,56.00
2018-07-13T06:29:52.531Z,56.00
2018-07-13T06:30:52.845Z,52.00
2018-07-13T06:31:52.848Z,52.00
2018-07-13T06:32:52.879Z,52.00
2018-07-13T06:33:52.835Z,52.00
2018-07-13T06:34:52.501Z,56.00
2018-07-13T06:35:52.812Z,56.00
2018-07-13T06:36:52.821Z,52.00
2018-07-13T06:37:52.795Z,40.00
2018-07-13T06:38:52.463Z,56.00
2018-07-13T06:39:52.785Z,56.00
2018-07-13T06:40:52.465Z,56.00
2018-07-13T06:41:52.772Z,64.00
2018-07-13T06:42:52.783Z,68.00
2018-07-13T06:43:52.772Z,64.00
2018-07-13T06:44:52.777Z,56.00
2018-07-13T06:45:52.742Z,56.00
2018-07-13T06:46:52.422Z,32.00
2018-07-13T06:47:52.412Z,40.00
2018-07-13T06:48:52.740Z,44.00
2018-07-13T06:49:52.716Z,40.00
2018-07-13T06:50:52.476Z,36.00
2018-07-13T06:51:52.702Z,32.00
2018-07-13T06:52:52.367Z,32.00
2018-07-13T06:53:52.362Z,52.00
2018-07-13T06:54:52.697Z,52.00
2018-07-13T06:55:52.677Z,52.00
2018-07-13T06:56:52.768Z,52.00
2018-07-13T06:57:52.678Z,48.00
2018-07-13T06:58:52.343Z,44.00
2018-07-13T06:59:52.334Z,36.00
2018-07-13T07:00:52.315Z,36.00
2018-07-13T07:01:52.651Z,32.00
2018-07-13T07:02:52.644Z,36.00
2018-07-13T07:03:52.304Z,52.00
2018-07-13T07:04:52.288Z,52.00
2018-07-13T07:05:52.606Z,52.00
2018-07-13T07:06:52.283Z,52.00
2018-07-13T07:07:52.266Z,48.00
2018-07-13T07:08:52.291Z,52.00
2018-07-13T07:09:52.607Z,56.00
2018-07-13T07:10:52.589Z,60.00
2018-07-13T07:11:52.253Z,60.00
2018-07-13T07:12:52.562Z,56.00
2018-07-13T07:13:52.568Z,52.00
2018-07-13T07:14:52.229Z,52.00
2018-07-13T07:15:52.556Z,48.00
2018-07-13T07:16:52.218Z,48.00
2018-07-13T07:17:52.282Z,52.00
2018-07-13T07:18:52.226Z,48.00
2018-07-13T07:19:52.198Z,48.00
2018-07-13T07:20:52.189Z,48.00
2018-07-13T07:21:52.502Z,44.00
2018-07-13T07:22:52.166Z,48.00
2018-07-13T07:23:52.160Z,48.00
2018-07-13T07:24:52.498Z,28.00
2018-07-13T07:25:52.490Z,28.00
2018-07-13T07:26:52.140Z,48.00
2018-07-13T07:27:52.133Z,48.00
2018-07-13T07:28:52.135Z,48.00
2018-07-13T07:29:52.119Z,48.00
2018-07-13T07:30:52.120Z,48.00
2018-07-13T07:31:52.112Z,48.00
2018-07-13T07:32:52.098Z,48.00
2018-07-13T07:33:52.419Z,44.00
2018-07-13T07:34:52.094Z,44.00
2018-07-13T07:35:52.404Z,44.00
2018-07-13T07:36:52.420Z,44.00
2018-07-13T07:37:52.062Z,48.00
2018-07-13T07:38:52.059Z,44.00
2018-07-13T07:39:52.374Z,44.00
2018-07-13T07:40:52.040Z,44.00
2018-07-13T07:41:52.036Z,40.00
2018-07-13T07:42:52.044Z,44.00
2018-07-13T07:43:52.416Z,44.00
2018-07-13T07:44:52.023Z,44.00
2018-07-13T07:45:52.011Z,44.00
2018-07-13T07:46:52.335Z,44.00
2018-07-13T07:47:52.003Z,44.00
2018-07-13T07:48:52.316Z,48.00
2018-07-13T07:49:52.385Z,48.00
2018-07-13T07:50:52.310Z,48.00
2018-07-13T07:51:52.315Z,44.00
2018-07-13T07:52:52.305Z,44.00
2018-07-13T07:53:51.987Z,44.00
2018-07-13T07:54:51.950Z,48.00
2018-07-13T07:55:52.268Z,48.00
2018-07-13T07:56:51.945Z,44.00
2018-07-13T07:57:51.927Z,44.00
2018-07-13T07:58:51.921Z,48.00
2018-07-13T07:59:51.927Z,44.00
2018-07-13T08:00:51.923Z,44.00
2018-07-13T08:01:52.253Z,44.00
2018-07-13T08:02:51.920Z,40.00
2018-07-13T08:03:52.214Z,44.00
2018-07-13T08:04:51.891Z,44.00
2018-07-13T08:05:52.217Z,44.00
2018-07-13T08:06:52.204Z,40.00
2018-07-13T08:07:51.891Z,44.00
2018-07-13T08:08:51.864Z,44.00
2018-07-13T08:09:52.194Z,40.00
2018-07-13T08:10:52.167Z,40.00
2018-07-13T08:11:51.846Z,40.00
2018-07-13T08:12:52.176Z,40.00
2018-07-13T08:13:51.853Z,40.00
2018-07-13T08:14:51.813Z,40.00
2018-07-13T08:15:51.817Z,40.00
2018-07-13T08:16:51.811Z,40.00
2018-07-13T08:17:51.796Z,40.00
2018-07-13T08:18:52.113Z,40.00
2018-07-13T08:19:51.782Z,40.00
2018-07-13T08:20:52.109Z,40.00
2018-07-13T08:21:52.096Z,40.00
2018-07-13T08:22:52.102Z,40.00
2018-07-13T08:23:52.096Z,40.00
2018-07-13T08:24:52.089Z,40.00
2018-07-13T08:25:51.744Z,40.00
2018-07-13T08:26:52.074Z,40.00
2018-07-13T08:27:51.725Z,40.00
2018-07-13T08:28:52.043Z,40.00
2018-07-13T08:29:51.718Z,40.00
2018-07-13T08:30:51.712Z,40.00
2018-07-13T08:31:51.699Z,40.00
2018-07-13T08:32:51.700Z,40.00
2018-07-13T08:33:51.716Z,36.00
2018-07-13T08:34:52.019Z,36.00
2018-07-13T08:35:51.679Z,36.00
2018-07-13T08:36:51.991Z,36.00
2018-07-13T08:37:51.727Z,40.00
2018-07-13T08:38:51.996Z,36.00
2018-07-13T08:39:51.649Z,40.00
2018-07-13T08:40:51.647Z,36.00
2018-07-13T08:41:51.952Z,40.00
2018-07-13T08:42:51.626Z,40.00
2018-07-13T08:43:51.961Z,40.00
2018-07-13T08:44:51.937Z,40.00
2018-07-13T08:45:51.629Z,40.00
2018-07-13T08:46:51.597Z,36.00
2018-07-13T08:47:51.919Z,40.00
2018-07-13T08:48:51.612Z,36.00
2018-07-13T08:49:51.906Z,36.00
2018-07-13T08:50:51.578Z,36.00
2018-07-13T08:51:51.887Z,36.00
2018-07-13T08:52:51.884Z,40.00
2018-07-13T08:53:51.889Z,36.00
2018-07-13T08:54:51.888Z,36.00
2018-07-13T08:55:51.586Z,36.00
2018-07-13T08:56:51.880Z,36.00
2018-07-13T08:57:51.848Z,36.00
2018-07-13T08:58:51.529Z,36.00
2018-07-13T08:59:51.861Z,36.00
2018-07-13T09:00:51.824Z,40.00
2018-07-13T09:01:51.818Z,40.00
2018-07-13T09:02:51.495Z,40.00
2018-07-13T09:03:51.823Z,40.00
2018-07-13T09:04:51.540Z,40.00
2018-07-13T09:05:51.891Z,40.00
2018-07-13T09:06:51.470Z,36.00
2018-07-13T09:07:51.795Z,36.00
2018-07-13T09:08:51.448Z,36.00
2018-07-13T09:09:51.764Z,40.00
2018-07-13T09:10:51.489Z,36.00
2018-07-13T09:11:51.506Z,40.00
2018-07-13T09:12:51.764Z,40.00
2018-07-13T09:13:51.737Z,40.00
2018-07-13T09:14:51.729Z,40.00
2018-07-13T09:15:51.407Z,36.00
2018-07-13T09:16:51.401Z,36.00
2018-07-13T09:17:51.734Z,36.00
2018-07-13T09:18:51.722Z,36.00
2018-07-13T09:19:51.374Z,36.00
2018-07-13T09:20:51.707Z,36.00
2018-07-13T09:21:51.367Z,36.00
2018-07-13T09:22:51.676Z,36.00
2018-07-13T09:23:51.349Z,36.00
2018-07-13T09:24:51.341Z,36.00
2018-07-13T09:25:51.656Z,36.00
2018-07-13T09:26:51.332Z,36.00
2018-07-13T09:27:51.324Z,36.00
2018-07-13T09:28:51.636Z,36.00
2018-07-13T09:29:51.302Z,36.00
2018-07-13T09:30:51.303Z,36.00
2018-07-13T09:31:51.635Z,36.00
2018-07-13T09:32:51.294Z,36.00
2018-07-13T09:33:51.294Z,36.00
2018-07-13T09:34:51.282Z,40.00
2018-07-13T09:35:51.262Z,40.00
2018-07-13T09:36:51.592Z,36.00
2018-07-13T09:37:51.644Z,36.00
2018-07-13T09:38:51.567Z,36.00
2018-07-13T09:39:51.252Z,36.00
2018-07-13T09:40:51.260Z,36.00
2018-07-13T09:41:51.569Z,36.00
2018-07-13T09:42:51.563Z,36.00
2018-07-13T09:43:51.542Z,36.00
2018-07-13T09:44:51.544Z,32.00
2018-07-13T09:45:51.540Z,32.00
2018-07-13T09:46:51.270Z,36.00
2018-07-13T09:47:51.189Z,36.00
2018-07-13T09:48:51.182Z,36.00
2018-07-13T09:49:51.169Z,36.00
2018-07-13T09:50:51.159Z,36.00
2018-07-13T09:51:51.163Z,36.00
2018-07-13T09:52:51.158Z,32.00
2018-07-13T09:53:51.558Z,32.00
2018-07-13T09:54:51.484Z,32.00
2018-07-13T09:55:51.460Z,36.00
2018-07-13T09:56:51.445Z,36.00
2018-07-13T09:57:51.437Z,36.00
2018-07-13T09:58:51.104Z,32.00
2018-07-13T09:59:51.425Z,32.00
2018-07-13T10:00:51.107Z,32.00
2018-07-13T10:01:51.095Z,32.00
2018-07-13T10:02:51.429Z,32.00
2018-07-13T10:03:51.100Z,32.00
2018-07-13T10:04:51.410Z,32.00
2018-07-13T10:05:51.075Z,36.00
2018-07-13T10:06:51.065Z,32.00
2018-07-13T10:07:51.052Z,32.00
2018-07-13T10:08:51.364Z,32.00
2018-07-13T10:09:51.383Z,32.00
2018-07-13T10:10:51.031Z,32.00
2018-07-13T10:11:51.341Z,32.00
2018-07-13T10:12:51.360Z,32.00
2018-07-13T10:13:51.014Z,28.00
2018-07-13T10:14:51.005Z,32.00
2018-07-13T10:15:51.317Z,32.00
2018-07-13T10:16:51.055Z,32.00
2018-07-13T10:17:51.299Z,28.00
2018-07-13T10:18:50.982Z,28.00
2018-07-13T10:19:51.000Z,32.00
2018-07-13T10:20:51.289Z,32.00
2018-07-13T10:21:51.276Z,28.00
2018-07-13T10:22:50.949Z,28.00
2018-07-13T10:23:50.944Z,28.00
2018-07-13T10:24:51.271Z,28.00
2018-07-13T10:25:50.925Z,32.00
2018-07-13T10:26:50.923Z,28.00
2018-07-13T10:27:51.238Z,28.00
2018-07-13T10:28:51.227Z,28.00
2018-07-13T10:29:51.238Z,28.00
2018-07-13T10:30:51.214Z,28.00
2018-07-13T10:31:51.224Z,28.00
2018-07-13T10:32:51.217Z,24.00
2018-07-13T10:33:50.864Z,28.00
2018-07-13T10:34:51.205Z,28.00
2018-07-13T10:35:50.856Z,28.00
2018-07-13T10:36:51.173Z,24.00
2018-07-13T10:37:51.181Z,24.00
2018-07-13T10:38:51.184Z,28.00
2018-07-13T10:39:50.828Z,28.00
2018-07-13T10:40:51.144Z,28.00
2018-07-13T10:41:50.838Z,24.00
2018-07-13T10:42:50.824Z,24.00
2018-07-13T10:43:50.797Z,24.00
2018-07-13T10:44:51.135Z,24.00
2018-07-13T10:45:50.791Z,28.00
2018-07-13T10:46:50.785Z,28.00
2018-07-13T10:47:50.836Z,24.00
2018-07-13T10:48:50.780Z,24.00
2018-07-13T10:49:50.758Z,24.00
2018-07-13T10:50:51.079Z,24.00
2018-07-13T10:51:50.753Z,24.00
2018-07-13T10:52:50.752Z,24.00
2018-07-13T10:53:51.058Z,24.00
2018-07-13T10:54:50.722Z,20.00
2018-07-13T10:55:51.062Z,24.00
2018-07-13T10:56:51.042Z,24.00
2018-07-13T10:57:50.713Z,24.00
2018-07-13T10:58:51.039Z,24.00
2018-07-13T10:59:50.700Z,24.00
2018-07-13T11:00:50.696Z,24.00
2018-07-13T11:01:51.003Z,20.00
2018-07-13T11:02:51.019Z,20.00
2018-07-13T11:03:50.677Z,24.00
2018-07-13T11:04:50.984Z,24.00
2018-07-13T11:05:50.991Z,24.00
2018-07-13T11:06:50.676Z,24.00
2018-07-13T11:07:50.637Z,20.00
2018-07-13T11:08:50.955Z,20.00
2018-07-13T11:09:50.967Z,20.00
2018-07-13T11:10:50.613Z,20.00
2018-07-13T11:11:50.608Z,20.00
2018-07-13T11:12:50.948Z,20.00
2018-07-13T11:13:51.107Z,24.00
2018-07-13T11:14:50.592Z,24.00
2018-07-13T11:15:50.582Z,20.00
2018-07-13T11:16:50.576Z,20.00
2018-07-13T11:17:50.912Z,20.00
2018-07-13T11:18:50.566Z,20.00
2018-07-13T11:19:50.559Z,20.00
2018-07-13T11:20:50.871Z,20.00
2018-07-13T11:21:50.873Z,20.00
2018-07-13T11:22:50.541Z,20.00
2018-07-13T11:23:50.851Z,16.00
2018-07-13T11:24:50.531Z,16.00
2018-07-13T11:25:50.527Z,16.00
2018-07-13T11:26:50.851Z,16.00
2018-07-13T11:27:50.499Z,20.00
2018-07-13T11:28:50.819Z,20.00
2018-07-13T11:29:50.504Z,20.00
2018-07-13T11:30:50.492Z,20.00
2018-07-13T11:31:50.802Z,20.00
2018-07-13T11:32:50.468Z,20.00
2018-07-13T11:33:50.784Z,20.00
2018-07-13T11:34:50.458Z,20.00
2018-07-13T11:35:50.457Z,20.00
2018-07-13T11:36:50.819Z,20.00
2018-07-13T11:37:50.451Z,20.00
2018-07-13T11:38:50.776Z,16.00
2018-07-13T11:39:50.427Z,16.00
2018-07-13T11:40:50.418Z,16.00
2018-07-13T11:41:50.416Z,16.00
2018-07-13T11:42:50.401Z,16.00
2018-07-13T11:43:50.397Z,16.00
2018-07-13T11:44:50.400Z,16.00
2018-07-13T11:45:50.716Z,16.00
2018-07-13T11:46:50.377Z,16.00
2018-07-13T11:47:50.370Z,16.00
2018-07-13T11:48:50.367Z,16.00
2018-07-13T11:49:50.356Z,16.00
2018-07-13T11:50:50.340Z,12.00
2018-07-13T11:51:50.328Z,16.00
2018-07-13T11:52:50.339Z,16.00
2018-07-13T11:53:50.326Z,16.00
2018-07-13T11:54:50.301Z,16.00
2018-07-13T11:55:50.318Z,16.00
2018-07-13T11:56:50.630Z,16.00
2018-07-13T11:57:50.281Z,12.00
2018-07-13T11:58:50.612Z,12.00
2018-07-13T11:59:50.284Z,12.00
2018-07-13T12:00:50.602Z,12.00
2018-07-13T12:01:50.622Z,12.00
2018-07-13T12:02:50.586Z,16.00
2018-07-13T12:03:50.261Z,16.00
2018-07-13T12:04:50.245Z,12.00
2018-07-13T12:05:50.590Z,12.00
2018-07-13T12:06:50.555Z,12.00
2018-07-13T12:07:50.573Z,12.00
2018-07-13T12:08:50.210Z,12.00
2018-07-13T12:09:50.214Z,12.00
2018-07-13T12:10:50.213Z,8.00
2018-07-13T12:11:50.543Z,8.00
2018-07-13T12:12:50.199Z,8.00
2018-07-13T12:13:50.187Z,12.00
2018-07-13T12:14:50.187Z,12.00
2018-07-13T12:15:50.512Z,12.00
2018-07-13T12:16:50.171Z,12.00
2018-07-13T12:17:50.532Z,8.00
2018-07-13T12:18:50.478Z,8.00
2018-07-13T12:19:50.472Z,8.00
2018-07-13T12:20:50.479Z,8.00
2018-07-13T12:21:50.130Z,8.00
2018-07-13T12:22:50.446Z,8.00
2018-07-13T12:23:50.469Z,4.00
2018-07-13T12:24:50.122Z,8.00
2018-07-13T12:25:50.082Z,8.00
2018-07-13T12:26:50.098Z,8.00
2018-07-13T12:27:50.089Z,8.00
2018-07-13T12:28:50.425Z,8.00
2018-07-13T12:29:50.390Z,8.00
2018-07-13T12:30:50.081Z,4.00
2018-07-13T12:31:50.405Z,4.00
2018-07-13T12:32:50.039Z,4.00
2018-07-13T12:33:50.052Z,4.00
2018-07-13T12:34:50.369Z,4.00
2018-07-13T12:35:50.030Z,4.00
2018-07-13T12:36:50.348Z,4.00
2018-07-13T12:37:50.003Z,4.00
2018-07-13T12:38:50.012Z,4.00
2018-07-13T12:39:50.370Z,4.00
2018-07-13T12:40:50.324Z,4.00
2018-07-13T12:41:49.990Z,0.00
2018-07-13T12:42:49.969Z,0.00
2018-07-13T12:43:49.993Z,0.00
2018-07-13T12:44:49.986Z,4.00
2018-07-13T12:45:50.287Z,4.00
2018-07-13T12:46:50.280Z,4.00